MSR727 LTAI-HECA
Flight info
| Callsign | MSR727 |
|---|---|
| Flight time | 1h 7m |
| Altitude | 33000 |
| Route | TOMBI1K/18L TOMBI DCT DASNI M855 RASDA A16 BLT |
| Aircraft | A320/M-SDE3FGHIRWY/LB1 |
Departure
| Time | 2026-05-05 18:33 |
|---|---|
| Airport | Antalya International Airport (LTAI) |
Arrival
| Time | 2026-05-05 19:40 |
|---|---|
| Airport | Cairo International Airport (HECA) |
| Time | Latitude | Longitude | Altitude | Speed | Heading |
|---|---|---|---|---|---|
| 2026-05-05 18:06 | 36.91339 | 30.80071 | 191 ft | 0 kts | 96° |
| 2026-05-05 18:25 | 36.91341 | 30.80048 | 191 ft | 4 kts | 97° |
| 2026-05-05 18:25 | 36.91344 | 30.80016 | 191 ft | 4 kts | 97° |
| 2026-05-05 18:26 | 36.91348 | 30.79983 | 191 ft | 4 kts | 96° |
| 2026-05-05 18:26 | 36.91350 | 30.79951 | 205 ft | 4 kts | 94° |
| 2026-05-05 18:26 | 36.91351 | 30.79919 | 191 ft | 4 kts | 87° |
| 2026-05-05 18:26 | 36.91349 | 30.79890 | 197 ft | 1 kts | 82° |
| 2026-05-05 18:27 | 36.91349 | 30.79889 | 191 ft | 0 kts | 82° |
| 2026-05-05 18:28 | 36.91352 | 30.79896 | 191 ft | 4 kts | 61° |
| 2026-05-05 18:29 | 36.91398 | 30.79906 | 199 ft | 8 kts | 6° |
| 2026-05-05 18:29 | 36.91464 | 30.79916 | 202 ft | 11 kts | 6° |
| 2026-05-05 18:29 | 36.91512 | 30.79857 | 197 ft | 13 kts | 274° |
| 2026-05-05 18:29 | 36.91523 | 30.79731 | 190 ft | 14 kts | 276° |
| 2026-05-05 18:30 | 36.91528 | 30.79674 | 190 ft | 1 kts | 276° |
| 2026-05-05 18:30 | 36.91530 | 30.79655 | 190 ft | 0 kts | 276° |
| 2026-05-05 18:30 | 36.91531 | 30.79639 | 190 ft | 4 kts | 276° |
| 2026-05-05 18:31 | 36.91538 | 30.79560 | 200 ft | 13 kts | 275° |
| 2026-05-05 18:31 | 36.91548 | 30.79431 | 187 ft | 16 kts | 277° |
| 2026-05-05 18:31 | 36.91560 | 30.79302 | 196 ft | 10 kts | 275° |
| 2026-05-05 18:31 | 36.91557 | 30.79250 | 194 ft | 6 kts | 245° |
| 2026-05-05 18:32 | 36.91510 | 30.79234 | 195 ft | 13 kts | 186° |
| 2026-05-05 18:32 | 36.91241 | 30.79198 | 198 ft | 73 kts | 186° |
| 2026-05-05 18:32 | 36.90528 | 30.79100 | 194 ft | 130 kts | 186° |
| 2026-05-05 18:32 | 36.89479 | 30.78949 | 276 ft | 165 kts | 188° |
| 2026-05-05 18:33 | 36.88354 | 30.78774 | 875 ft | 163 kts | 188° |
| 2026-05-05 18:33 | 36.87240 | 30.78487 | 1444 ft | 167 kts | 201° |
| 2026-05-05 18:33 | 36.86078 | 30.77942 | 1710 ft | 189 kts | 203° |
| 2026-05-05 18:33 | 36.84786 | 30.77291 | 2040 ft | 210 kts | 202° |
| 2026-05-05 18:34 | 36.83384 | 30.76592 | 2628 ft | 219 kts | 202° |
| 2026-05-05 18:34 | 36.81959 | 30.75896 | 3461 ft | 221 kts | 202° |
| 2026-05-05 18:34 | 36.80518 | 30.75205 | 4261 ft | 223 kts | 202° |
| 2026-05-05 18:34 | 36.79058 | 30.74505 | 5046 ft | 227 kts | 201° |
| 2026-05-05 18:35 | 36.77567 | 30.73808 | 5815 ft | 234 kts | 199° |
| 2026-05-05 18:35 | 36.76022 | 30.73085 | 6468 ft | 245 kts | 200° |
| 2026-05-05 18:35 | 36.74341 | 30.72380 | 6857 ft | 270 kts | 192° |
| 2026-05-05 18:35 | 36.72429 | 30.72321 | 7487 ft | 281 kts | 169° |
| 2026-05-05 18:36 | 36.70590 | 30.73165 | 8273 ft | 286 kts | 148° |
| 2026-05-05 18:36 | 36.68917 | 30.74532 | 9070 ft | 289 kts | 149° |
| 2026-05-05 18:36 | 36.67053 | 30.75518 | 9829 ft | 294 kts | 165° |
| 2026-05-05 18:36 | 36.65004 | 30.75872 | 10414 ft | 306 kts | 181° |
| 2026-05-05 18:37 | 36.62811 | 30.75635 | 10639 ft | 328 kts | 187° |
| 2026-05-05 18:37 | 36.60466 | 30.75300 | 10873 ft | 348 kts | 187° |
| 2026-05-05 18:37 | 36.58029 | 30.74952 | 11459 ft | 355 kts | 187° |
| 2026-05-05 18:37 | 36.55561 | 30.74632 | 12167 ft | 359 kts | 184° |
| 2026-05-05 18:38 | 36.53055 | 30.74763 | 12836 ft | 363 kts | 172° |
| 2026-05-05 18:38 | 36.50548 | 30.75289 | 13498 ft | 367 kts | 171° |
| 2026-05-05 18:38 | 36.48023 | 30.75825 | 14126 ft | 371 kts | 171° |
| 2026-05-05 18:38 | 36.45465 | 30.76362 | 14733 ft | 375 kts | 171° |
| 2026-05-05 18:39 | 36.42880 | 30.76901 | 15326 ft | 379 kts | 171° |
| 2026-05-05 18:39 | 36.40266 | 30.77444 | 15894 ft | 383 kts | 172° |
| 2026-05-05 18:39 | 36.37624 | 30.77991 | 16449 ft | 386 kts | 172° |
| 2026-05-05 18:39 | 36.34996 | 30.78536 | 17014 ft | 390 kts | 172° |
| 2026-05-05 18:40 | 36.32305 | 30.79093 | 17564 ft | 394 kts | 172° |
| 2026-05-05 18:40 | 36.29583 | 30.79656 | 18129 ft | 398 kts | 172° |
| 2026-05-05 18:40 | 36.26838 | 30.80225 | 18700 ft | 402 kts | 172° |
| 2026-05-05 18:40 | 36.24068 | 30.80799 | 19284 ft | 405 kts | 172° |
| 2026-05-05 18:41 | 36.21272 | 30.81382 | 19878 ft | 409 kts | 172° |
| 2026-05-05 18:41 | 36.18445 | 30.81920 | 20442 ft | 412 kts | 176° |
| 2026-05-05 18:41 | 36.15572 | 30.82082 | 20979 ft | 415 kts | 180° |
| 2026-05-05 18:41 | 36.12678 | 30.82179 | 21470 ft | 417 kts | 180° |
| 2026-05-05 18:42 | 36.09759 | 30.82271 | 21953 ft | 420 kts | 180° |
| 2026-05-05 18:42 | 36.06822 | 30.82363 | 22419 ft | 424 kts | 180° |
| 2026-05-05 18:42 | 36.03868 | 30.82458 | 22878 ft | 426 kts | 180° |
| 2026-05-05 18:42 | 36.00889 | 30.82584 | 23315 ft | 429 kts | 180° |
| 2026-05-05 18:43 | 35.97901 | 30.82751 | 23729 ft | 432 kts | 179° |
| 2026-05-05 18:43 | 35.94929 | 30.82944 | 24138 ft | 434 kts | 179° |
| 2026-05-05 18:43 | 35.91895 | 30.83152 | 24543 ft | 437 kts | 179° |
| 2026-05-05 18:43 | 35.88854 | 30.83358 | 24929 ft | 439 kts | 179° |
| 2026-05-05 18:44 | 35.85795 | 30.83556 | 25297 ft | 441 kts | 179° |
| 2026-05-05 18:44 | 35.82722 | 30.83746 | 25648 ft | 443 kts | 179° |
| 2026-05-05 18:44 | 35.79635 | 30.83929 | 26011 ft | 446 kts | 179° |
| 2026-05-05 18:44 | 35.76523 | 30.84114 | 26372 ft | 448 kts | 179° |
| 2026-05-05 18:45 | 35.73401 | 30.84299 | 26722 ft | 450 kts | 180° |
| 2026-05-05 18:45 | 35.70264 | 30.84486 | 27065 ft | 452 kts | 179° |
| 2026-05-05 18:45 | 35.67109 | 30.84677 | 27397 ft | 455 kts | 179° |
| 2026-05-05 18:45 | 35.63943 | 30.84868 | 27710 ft | 457 kts | 179° |
| 2026-05-05 18:46 | 35.60756 | 30.85057 | 28033 ft | 459 kts | 180° |
| 2026-05-05 18:46 | 35.57556 | 30.85203 | 28351 ft | 461 kts | 180° |
| 2026-05-05 18:46 | 35.54342 | 30.85310 | 28654 ft | 463 kts | 181° |
| 2026-05-05 18:46 | 35.51119 | 30.85394 | 28993 ft | 463 kts | 181° |
| 2026-05-05 18:47 | 35.47899 | 30.85478 | 29417 ft | 462 kts | 181° |
| 2026-05-05 18:47 | 35.44685 | 30.85571 | 29832 ft | 461 kts | 181° |
| 2026-05-05 18:47 | 35.41525 | 30.85673 | 30249 ft | 460 kts | 181° |
| 2026-05-05 18:47 | 35.38329 | 30.85780 | 30671 ft | 459 kts | 181° |
| 2026-05-05 18:48 | 35.35136 | 30.85887 | 31081 ft | 459 kts | 181° |
| 2026-05-05 18:48 | 35.31953 | 30.85997 | 31486 ft | 458 kts | 181° |
| 2026-05-05 18:48 | 35.28770 | 30.86106 | 31882 ft | 457 kts | 181° |
| 2026-05-05 18:48 | 35.25591 | 30.86212 | 32275 ft | 457 kts | 181° |
| 2026-05-05 18:49 | 35.22414 | 30.86319 | 32668 ft | 456 kts | 181° |
| 2026-05-05 18:49 | 35.19242 | 30.86427 | 32954 ft | 456 kts | 181° |
| 2026-05-05 18:49 | 35.12859 | 30.86634 | 33027 ft | 461 kts | 181° |
| 2026-05-05 18:50 | 35.06429 | 30.86846 | 33025 ft | 462 kts | 181° |
| 2026-05-05 18:50 | 34.99995 | 30.87073 | 33027 ft | 462 kts | 181° |
| 2026-05-05 18:51 | 34.93566 | 30.87283 | 33027 ft | 462 kts | 181° |
| 2026-05-05 18:51 | 34.87133 | 30.87495 | 33030 ft | 462 kts | 181° |
| 2026-05-05 18:52 | 34.80756 | 30.87706 | 33025 ft | 461 kts | 181° |
| 2026-05-05 18:52 | 34.74352 | 30.87913 | 33020 ft | 461 kts | 181° |
| 2026-05-05 18:53 | 34.67934 | 30.88116 | 33011 ft | 461 kts | 181° |
| 2026-05-05 18:53 | 34.61510 | 30.88328 | 33018 ft | 462 kts | 181° |
| 2026-05-05 18:54 | 34.55085 | 30.88611 | 33020 ft | 462 kts | 180° |
| 2026-05-05 18:54 | 34.48655 | 30.88964 | 33026 ft | 462 kts | 180° |
| 2026-05-05 18:55 | 34.42224 | 30.89312 | 33032 ft | 463 kts | 180° |
| 2026-05-05 18:55 | 34.35801 | 30.89609 | 33033 ft | 462 kts | 181° |
| 2026-05-05 18:56 | 34.29422 | 30.89907 | 33040 ft | 462 kts | 180° |
| 2026-05-05 18:56 | 34.22989 | 30.90220 | 33047 ft | 463 kts | 180° |
| 2026-05-05 18:57 | 34.16543 | 30.90585 | 33051 ft | 463 kts | 180° |
| 2026-05-05 18:57 | 34.10104 | 30.90961 | 33054 ft | 463 kts | 180° |
| 2026-05-05 18:58 | 34.04754 | 30.91256 | 33054 ft | 463 kts | 180° |
| 2026-05-05 18:58 | 33.97273 | 30.91670 | 33056 ft | 463 kts | 180° |
| 2026-05-05 18:59 | 33.91893 | 30.91954 | 33055 ft | 462 kts | 181° |
| 2026-05-05 18:59 | 33.85471 | 30.92190 | 33053 ft | 461 kts | 181° |
| 2026-05-05 19:00 | 33.79098 | 30.92396 | 33054 ft | 461 kts | 181° |
| 2026-05-05 19:00 | 33.72677 | 30.92637 | 33059 ft | 462 kts | 181° |
| 2026-05-05 19:01 | 33.66255 | 30.92883 | 33060 ft | 461 kts | 181° |
| 2026-05-05 19:01 | 33.59845 | 30.93128 | 33059 ft | 461 kts | 181° |
| 2026-05-05 19:02 | 33.53424 | 30.93369 | 33065 ft | 461 kts | 181° |
| 2026-05-05 19:02 | 33.47007 | 30.93608 | 33070 ft | 461 kts | 181° |
| 2026-05-05 19:03 | 33.40615 | 30.93843 | 33060 ft | 459 kts | 181° |
| 2026-05-05 19:03 | 33.34269 | 30.94091 | 33055 ft | 459 kts | 181° |
| 2026-05-05 19:04 | 33.27877 | 30.94334 | 33052 ft | 459 kts | 181° |
| 2026-05-05 19:04 | 33.21479 | 30.94573 | 33059 ft | 460 kts | 181° |
| 2026-05-05 19:05 | 33.15079 | 30.94809 | 33066 ft | 460 kts | 181° |
| 2026-05-05 19:05 | 33.08682 | 30.95071 | 33067 ft | 461 kts | 180° |
| 2026-05-05 19:06 | 33.02276 | 30.95694 | 33078 ft | 462 kts | 177° |
| 2026-05-05 19:06 | 32.95875 | 30.96544 | 33082 ft | 463 kts | 177° |
| 2026-05-05 19:07 | 32.89516 | 30.97332 | 33086 ft | 462 kts | 178° |
| 2026-05-05 19:07 | 32.83121 | 30.98033 | 33090 ft | 462 kts | 179° |
| 2026-05-05 19:08 | 32.76716 | 30.98717 | 33091 ft | 462 kts | 178° |
| 2026-05-05 19:08 | 32.70321 | 30.99421 | 33090 ft | 461 kts | 178° |
| 2026-05-05 19:09 | 32.63927 | 31.00140 | 33092 ft | 461 kts | 178° |
| 2026-05-05 19:09 | 32.57535 | 31.00851 | 33094 ft | 461 kts | 178° |
| 2026-05-05 19:10 | 32.51193 | 31.01556 | 33093 ft | 461 kts | 178° |
| 2026-05-05 19:10 | 32.44807 | 31.02269 | 33096 ft | 461 kts | 178° |
| 2026-05-05 19:11 | 32.38432 | 31.02979 | 33092 ft | 460 kts | 179° |
| 2026-05-05 19:11 | 32.32056 | 31.03673 | 33087 ft | 460 kts | 179° |
| 2026-05-05 19:12 | 32.25626 | 31.04378 | 33093 ft | 461 kts | 179° |
| 2026-05-05 19:12 | 32.19284 | 31.05086 | 33096 ft | 461 kts | 179° |
| 2026-05-05 19:13 | 32.12897 | 31.05793 | 33103 ft | 461 kts | 179° |
| 2026-05-05 19:13 | 32.06516 | 31.06488 | 33104 ft | 460 kts | 179° |
| 2026-05-05 19:14 | 32.00132 | 31.07178 | 33105 ft | 460 kts | 179° |
| 2026-05-05 19:14 | 31.93753 | 31.07856 | 33106 ft | 459 kts | 179° |
| 2026-05-05 19:15 | 31.87386 | 31.08543 | 33106 ft | 459 kts | 179° |
| 2026-05-05 19:15 | 31.81027 | 31.09230 | 33105 ft | 459 kts | 179° |
| 2026-05-05 19:16 | 31.74665 | 31.09908 | 33110 ft | 459 kts | 179° |
| 2026-05-05 19:16 | 31.68302 | 31.10587 | 33107 ft | 459 kts | 179° |
| 2026-05-05 19:17 | 31.61982 | 31.11263 | 33108 ft | 459 kts | 179° |
| 2026-05-05 19:17 | 31.55616 | 31.11948 | 33109 ft | 459 kts | 179° |
| 2026-05-05 19:18 | 31.49256 | 31.12763 | 33110 ft | 461 kts | 176° |
| 2026-05-05 19:18 | 31.42908 | 31.13981 | 33116 ft | 462 kts | 174° |
| 2026-05-05 19:19 | 31.36571 | 31.15298 | 33119 ft | 462 kts | 174° |
| 2026-05-05 19:19 | 31.30235 | 31.16530 | 32929 ft | 461 kts | 175° |
| 2026-05-05 19:20 | 31.27047 | 31.17117 | 31797 ft | 468 kts | 175° |
| 2026-05-05 19:20 | 31.23806 | 31.17705 | 30742 ft | 473 kts | 175° |
| 2026-05-05 19:20 | 31.20543 | 31.18299 | 29606 ft | 475 kts | 175° |
| 2026-05-05 19:20 | 31.17311 | 31.18894 | 28464 ft | 466 kts | 175° |
| 2026-05-05 19:21 | 31.14160 | 31.19483 | 27823 ft | 449 kts | 175° |
| 2026-05-05 19:21 | 31.11085 | 31.20063 | 27136 ft | 447 kts | 175° |
| 2026-05-05 19:21 | 31.08024 | 31.20639 | 26437 ft | 445 kts | 175° |
| 2026-05-05 19:21 | 31.05013 | 31.21201 | 25749 ft | 442 kts | 175° |
| 2026-05-05 19:22 | 31.01980 | 31.21766 | 25058 ft | 439 kts | 175° |
| 2026-05-05 19:22 | 30.98972 | 31.22323 | 24373 ft | 436 kts | 174° |
| 2026-05-05 19:22 | 30.95984 | 31.22878 | 23699 ft | 434 kts | 174° |
| 2026-05-05 19:22 | 30.93015 | 31.23430 | 23025 ft | 431 kts | 174° |
| 2026-05-05 19:23 | 30.90064 | 31.23974 | 22349 ft | 428 kts | 174° |
| 2026-05-05 19:23 | 30.87130 | 31.24514 | 21691 ft | 426 kts | 174° |
| 2026-05-05 19:23 | 30.84218 | 31.25051 | 21049 ft | 422 kts | 174° |
| 2026-05-05 19:23 | 30.81322 | 31.25592 | 20439 ft | 419 kts | 174° |
| 2026-05-05 19:24 | 30.78453 | 31.26126 | 19839 ft | 417 kts | 174° |
| 2026-05-05 19:24 | 30.75596 | 31.26657 | 19259 ft | 414 kts | 174° |
| 2026-05-05 19:24 | 30.72762 | 31.27180 | 18683 ft | 411 kts | 174° |
| 2026-05-05 19:24 | 30.69942 | 31.27701 | 18111 ft | 408 kts | 173° |
| 2026-05-05 19:25 | 30.67154 | 31.28218 | 17543 ft | 405 kts | 173° |
| 2026-05-05 19:25 | 30.64379 | 31.28733 | 16952 ft | 402 kts | 173° |
| 2026-05-05 19:25 | 30.61606 | 31.29245 | 15903 ft | 402 kts | 173° |
| 2026-05-05 19:25 | 30.58929 | 31.29737 | 14855 ft | 394 kts | 173° |
| 2026-05-05 19:26 | 30.56247 | 31.30230 | 13809 ft | 386 kts | 173° |
| 2026-05-05 19:26 | 30.53629 | 31.30711 | 12988 ft | 377 kts | 173° |
| 2026-05-05 19:26 | 30.51047 | 31.31183 | 12363 ft | 374 kts | 173° |
| 2026-05-05 19:26 | 30.48486 | 31.31650 | 11747 ft | 371 kts | 172° |
| 2026-05-05 19:27 | 30.45976 | 31.32107 | 11201 ft | 365 kts | 172° |
| 2026-05-05 19:27 | 30.43573 | 31.32549 | 11048 ft | 335 kts | 172° |
| 2026-05-05 19:27 | 30.41359 | 31.32961 | 10916 ft | 310 kts | 172° |
| 2026-05-05 19:27 | 30.39304 | 31.33344 | 10790 ft | 289 kts | 173° |
| 2026-05-05 19:28 | 30.37355 | 31.33703 | 10455 ft | 277 kts | 173° |
| 2026-05-05 19:28 | 30.35468 | 31.34049 | 10211 ft | 274 kts | 173° |
| 2026-05-05 19:28 | 30.33586 | 31.34389 | 10005 ft | 271 kts | 173° |
| 2026-05-05 19:28 | 30.31721 | 31.34723 | 9760 ft | 271 kts | 173° |
| 2026-05-05 19:29 | 30.29866 | 31.34745 | 9466 ft | 265 kts | 195° |
| 2026-05-05 19:29 | 30.28144 | 31.34030 | 9155 ft | 262 kts | 207° |
| 2026-05-05 19:29 | 30.26521 | 31.33073 | 8848 ft | 262 kts | 210° |
| 2026-05-05 19:29 | 30.24917 | 31.32080 | 8556 ft | 261 kts | 210° |
| 2026-05-05 19:30 | 30.23334 | 31.31058 | 8259 ft | 259 kts | 213° |
| 2026-05-05 19:30 | 30.21835 | 31.29947 | 8077 ft | 249 kts | 215° |
| 2026-05-05 19:30 | 30.20427 | 31.28882 | 7781 ft | 237 kts | 215° |
| 2026-05-05 19:30 | 30.19058 | 31.27843 | 7334 ft | 234 kts | 215° |
| 2026-05-05 19:31 | 30.17698 | 31.26808 | 6842 ft | 233 kts | 214° |
| 2026-05-05 19:31 | 30.16364 | 31.25798 | 6583 ft | 223 kts | 215° |
| 2026-05-05 19:31 | 30.15104 | 31.24847 | 6350 ft | 212 kts | 215° |
| 2026-05-05 19:31 | 30.13876 | 31.23923 | 5969 ft | 210 kts | 215° |
| 2026-05-05 19:32 | 30.12657 | 31.23008 | 5561 ft | 209 kts | 215° |
| 2026-05-05 19:32 | 30.11453 | 31.22100 | 5290 ft | 209 kts | 215° |
| 2026-05-05 19:32 | 30.10238 | 31.21184 | 5007 ft | 208 kts | 215° |
| 2026-05-05 19:32 | 30.09026 | 31.20273 | 4727 ft | 207 kts | 215° |
| 2026-05-05 19:33 | 30.07822 | 31.19363 | 4441 ft | 207 kts | 215° |
| 2026-05-05 19:33 | 30.06616 | 31.18450 | 4157 ft | 207 kts | 215° |
| 2026-05-05 19:33 | 30.05414 | 31.17539 | 3881 ft | 207 kts | 215° |
| 2026-05-05 19:33 | 30.04188 | 31.16678 | 3597 ft | 207 kts | 201° |
| 2026-05-05 19:34 | 30.02782 | 31.16561 | 3312 ft | 206 kts | 163° |
| 2026-05-05 19:34 | 30.01533 | 31.17325 | 2994 ft | 205 kts | 140° |
| 2026-05-05 19:34 | 30.00450 | 31.18415 | 2714 ft | 206 kts | 135° |
| 2026-05-05 19:35 | 29.98673 | 31.20911 | 2512 ft | 201 kts | 108° |
| 2026-05-05 19:35 | 29.98398 | 31.22486 | 2510 ft | 200 kts | 88° |
| 2026-05-05 19:35 | 29.98581 | 31.24060 | 2512 ft | 198 kts | 70° |
| 2026-05-05 19:35 | 29.99180 | 31.25463 | 2507 ft | 194 kts | 51° |
| 2026-05-05 19:36 | 30.00055 | 31.26653 | 2514 ft | 194 kts | 47° |
| 2026-05-05 19:36 | 30.00892 | 31.27764 | 2533 ft | 186 kts | 46° |
| 2026-05-05 19:36 | 30.01737 | 31.28882 | 2507 ft | 184 kts | 47° |
| 2026-05-05 19:36 | 30.02553 | 31.29967 | 2468 ft | 173 kts | 47° |
| 2026-05-05 19:37 | 30.03329 | 31.30996 | 2340 ft | 167 kts | 47° |
| 2026-05-05 19:37 | 30.04056 | 31.31962 | 2156 ft | 155 kts | 49° |
| 2026-05-05 19:37 | 30.04745 | 31.32877 | 1965 ft | 150 kts | 51° |
| 2026-05-05 19:37 | 30.05419 | 31.33774 | 1771 ft | 145 kts | 51° |
| 2026-05-05 19:38 | 30.06066 | 31.34633 | 1583 ft | 139 kts | 47° |
| 2026-05-05 19:38 | 30.06697 | 31.35471 | 1398 ft | 137 kts | 47° |
| 2026-05-05 19:38 | 30.07320 | 31.36300 | 1219 ft | 136 kts | 47° |
| 2026-05-05 19:38 | 30.07943 | 31.37127 | 1038 ft | 136 kts | 47° |
| 2026-05-05 19:39 | 30.08563 | 31.37951 | 850 ft | 136 kts | 47° |
| 2026-05-05 19:39 | 30.09182 | 31.38775 | 673 ft | 136 kts | 47° |
| 2026-05-05 19:39 | 30.09802 | 31.39599 | 486 ft | 136 kts | 47° |
| 2026-05-05 19:39 | 30.10410 | 31.40415 | 380 ft | 125 kts | 47° |
| 2026-05-05 19:40 | 30.10882 | 31.41038 | 372 ft | 79 kts | 49° |
| 2026-05-05 19:40 | 30.11128 | 31.41366 | 374 ft | 29 kts | 49° |
| 2026-05-05 19:40 | 30.11256 | 31.41520 | 373 ft | 27 kts | 40° |
| 2026-05-05 19:40 | 30.11429 | 31.41610 | 375 ft | 26 kts | 15° |
| 2026-05-05 19:41 | 30.11545 | 31.41617 | 375 ft | 16 kts | 320° |
| 2026-05-05 19:41 | 30.11521 | 31.41495 | 375 ft | 19 kts | 230° |
| 2026-05-05 19:41 | 30.11432 | 31.41375 | 375 ft | 22 kts | 229° |
| 2026-05-05 19:41 | 30.11327 | 31.41235 | 375 ft | 24 kts | 229° |
| 2026-05-05 19:42 | 30.11209 | 31.41081 | 375 ft | 27 kts | 229° |
| 2026-05-05 19:42 | 30.11082 | 31.40910 | 375 ft | 29 kts | 229° |
| 2026-05-05 19:42 | 30.10942 | 31.40726 | 375 ft | 32 kts | 229° |
| 2026-05-05 19:42 | 30.10793 | 31.40527 | 374 ft | 34 kts | 229° |
| 2026-05-05 19:43 | 30.10683 | 31.40351 | 374 ft | 15 kts | 280° |
| 2026-05-05 19:43 | 30.10692 | 31.40235 | 374 ft | 17 kts | 227° |
| 2026-05-05 19:43 | 30.10609 | 31.40125 | 374 ft | 20 kts | 229° |
| 2026-05-05 19:43 | 30.10512 | 31.39998 | 374 ft | 22 kts | 229° |
| 2026-05-05 19:44 | 30.10529 | 31.39862 | 374 ft | 19 kts | 339° |
| 2026-05-05 19:44 | 30.10637 | 31.39828 | 374 ft | 15 kts | 345° |
| 2026-05-05 19:44 | 30.10732 | 31.39798 | 374 ft | 13 kts | 346° |
| 2026-05-05 19:44 | 30.10799 | 31.39779 | 374 ft | 8 kts | 346° |
| 2026-05-05 19:45 | 30.10824 | 31.39747 | 374 ft | 4 kts | 259° |
| 2026-05-05 19:45 | 30.10815 | 31.39711 | 374 ft | 4 kts | 258° |
| 2026-05-05 19:45 | 30.10809 | 31.39682 | 374 ft | 0 kts | 255° |
| 2026-05-05 19:45 | 30.10808 | 31.39680 | 374 ft | 0 kts | 255° |